Time;durP1;ratioP1;P1;durP2;ratioP2;P2;SDS_P1;SDS_P2;PMS_P1;PMS_P2;Temp;Humidity;BMP_temperature;BMP_pressure;BME280_temperature;BME280_humidity;BME280_pressure;Samples;Min_cycle;Max_cycle;Signal;HPM_P1;HPM_P2
2023/03/02 00:01:03;;;;;;;29.45;19.17;;;;;;;;;;5095250;28;20207;-69
2023/03/02 00:03:32;;;;;;;28.45;18.73;;;;;;;;;;5098949;28;20207;-69
2023/03/02 00:05:58;;;;;;;29.27;18.48;;;;;;;;;;5090872;28;20208;-69
2023/03/02 00:08:25;;;;;;;32.55;19.92;;;;;;;;;;5098479;28;20241;-69
2023/03/02 00:10:53;;;;;;;30.58;19.65;;;;;;;;;;5098957;28;20253;-69
2023/03/02 00:13:19;;;;;;;31.20;20.10;;;;;;;;;;5098829;28;20211;-69
2023/03/02 00:15:46;;;;;;;31.73;19.42;;;;;;;;;;5098753;28;20225;-69
2023/03/02 00:18:12;;;;;;;29.77;19.35;;;;;;;;;;5098678;28;20211;-69
2023/03/02 00:20:39;;;;;;;30.50;19.60;;;;;;;;;;5099004;28;20257;-69
2023/03/02 00:23:06;;;;;;;26.90;19.20;;;;;;;;;;5098695;28;20217;-69
2023/03/02 00:25:32;;;;;;;30.45;19.30;;;;;;;;;;5099159;28;20216;-69
2023/03/02 00:27:58;;;;;;;30.13;19.48;;;;;;;;;;5099259;28;20228;-69
2023/03/02 00:30:24;;;;;;;29.33;19.55;;;;;;;;;;5099324;28;20211;-69
2023/03/02 00:32:51;;;;;;;31.40;19.95;;;;;;;;;;5098962;28;20211;-69
2023/03/02 00:35:17;;;;;;;30.35;19.88;;;;;;;;;;5098332;28;20212;-69
2023/03/02 00:37:45;;;;;;;29.60;19.95;;;;;;;;;;5097658;28;20207;-69
2023/03/02 00:40:11;;;;;;;27.30;18.83;;;;;;;;;;5098553;28;20215;-69
2023/03/02 00:42:37;;;;;;;32.05;20.48;;;;;;;;;;5098409;28;20215;-69
2023/03/02 00:45:04;;;;;;;34.53;19.98;;;;;;;;;;5098402;28;20253;-69
2023/03/02 00:47:32;;;;;;;30.58;19.55;;;;;;;;;;5098022;28;20250;-69
2023/03/02 00:49:58;;;;;;;34.30;20.35;;;;;;;;;;5098313;28;20211;-69
2023/03/02 00:52:25;;;;;;;27.42;19.13;;;;;;;;;;5098453;28;20212;-69
2023/03/02 00:54:52;;;;;;;27.70;18.95;;;;;;;;;;5098378;28;20211;-69
2023/03/02 00:57:19;;;;;;;31.65;20.02;;;;;;;;;;5098316;28;20496;-69
2023/03/02 00:59:45;;;;;;;33.92;19.73;;;;;;;;;;5097879;28;20523;-69
2023/03/02 01:02:11;;;;;;;45.03;24.10;;;;;;;;;;5097782;28;20520;-69
2023/03/02 01:04:38;;;;;;;29.33;18.80;;;;;;;;;;5097626;28;20612;-69
2023/03/02 01:07:06;;;;;;;35.28;20.73;;;;;;;;;;5097714;28;20269;-69
2023/03/02 01:09:32;;;;;;;28.88;18.48;;;;;;;;;;5098059;28;20531;-69
2023/03/02 01:12:00;;;;;;;26.08;17.55;;;;;;;;;;5098246;28;20208;-69
2023/03/02 01:14:26;;;;;;;32.55;19.83;;;;;;;;;;5097861;28;20212;-69
2023/03/02 01:16:53;;;;;;;28.90;18.63;;;;;;;;;;5097557;28;20253;-69
2023/03/02 01:19:19;;;;;;;30.20;19.80;;;;;;;;;;5098074;28;20218;-69
2023/03/02 01:21:45;;;;;;;29.83;19.90;;;;;;;;;;5098044;28;20211;-69
2023/03/02 01:24:12;;;;;;;29.50;19.40;;;;;;;;;;5097629;28;20207;-69
2023/03/02 01:26:38;;;;;;;30.67;20.08;;;;;;;;;;5097282;28;20464;-69
2023/03/02 01:29:06;;;;;;;31.67;19.48;;;;;;;;;;5097433;28;20227;-69
2023/03/02 01:31:32;;;;;;;29.08;18.65;;;;;;;;;;5097284;28;20212;-69
2023/03/02 01:33:58;;;;;;;31.48;19.05;;;;;;;;;;5096634;28;20215;-69
2023/03/02 01:36:24;;;;;;;33.92;20.73;;;;;;;;;;5097052;28;20218;-69
2023/03/02 01:38:52;;;;;;;33.53;20.10;;;;;;;;;;5096507;28;20216;-69
2023/03/02 01:41:19;;;;;;;29.17;18.73;;;;;;;;;;5097280;28;20243;-69
2023/03/02 01:43:45;;;;;;;31.60;20.33;;;;;;;;;;5096855;28;20469;-69
2023/03/02 01:46:14;;;;;;;30.08;19.67;;;;;;;;;;5097406;28;20257;-69
2023/03/02 01:48:43;;;;;;;33.80;20.30;;;;;;;;;;5096465;28;20224;-69
2023/03/02 01:51:14;;;;;;;32.88;21.10;;;;;;;;;;5097764;28;20250;-69
2023/03/02 01:53:45;;;;;;;39.35;21.58;;;;;;;;;;5097206;28;20605;-69
2023/03/02 01:56:13;;;;;;;40.75;23.10;;;;;;;;;;5097829;28;20207;-69
2023/03/02 01:58:39;;;;;;;35.95;21.35;;;;;;;;;;5088151;28;20534;-69
2023/03/02 02:01:14;;;;;;;40.00;22.92;;;;;;;;;;5089549;28;20215;-69
2023/03/02 02:03:43;;;;;;;38.08;21.90;;;;;;;;;;5096540;28;20211;-69
2023/03/02 02:06:16;;;;;;;38.65;22.92;;;;;;;;;;5096951;28;20227;-69
2023/03/02 02:08:43;;;;;;;39.20;23.92;;;;;;;;;;5089457;28;20237;-69
2023/03/02 02:11:09;;;;;;;38.83;22.92;;;;;;;;;;5096607;28;20242;-69
2023/03/02 02:13:35;;;;;;;42.60;23.52;;;;;;;;;;5097021;28;20261;-69
2023/03/02 02:16:02;;;;;;;38.90;22.67;;;;;;;;;;5096017;28;20218;-69
2023/03/02 02:18:28;;;;;;;36.53;23.20;;;;;;;;;;5095892;28;20652;-69
2023/03/02 02:20:56;;;;;;;38.50;22.35;;;;;;;;;;5087393;28;20450;-69
2023/03/02 02:23:25;;;;;;;37.72;22.42;;;;;;;;;;5096017;28;20215;-69
2023/03/02 02:26:08;;;;;;;33.25;22.13;;;;;;;;;;5096181;28;20455;-69
2023/03/02 02:28:37;;;;;;;38.03;22.52;;;;;;;;;;5095755;28;20563;-69
2023/03/02 02:31:06;;;;;;;37.75;21.58;;;;;;;;;;5096239;28;20215;-69
2023/03/02 02:33:33;;;;;;;38.13;21.92;;;;;;;;;;5096655;28;20406;-69
2023/03/02 02:36:02;;;;;;;33.35;20.58;;;;;;;;;;5096290;28;20455;-69
2023/03/02 02:38:29;;;;;;;36.47;22.20;;;;;;;;;;5089647;28;20212;-69
2023/03/02 02:40:56;;;;;;;31.88;21.75;;;;;;;;;;5094850;28;20279;-69
2023/03/02 02:43:23;;;;;;;32.75;21.73;;;;;;;;;;5096369;28;20211;-69
2023/03/02 02:45:52;;;;;;;35.45;22.20;;;;;;;;;;5096278;28;20281;-69
2023/03/02 02:48:19;;;;;;;33.45;21.77;;;;;;;;;;5095717;28;20234;-69
2023/03/02 02:50:46;;;;;;;35.10;21.67;;;;;;;;;;5095842;28;20216;-69
2023/03/02 02:53:14;;;;;;;34.03;21.38;;;;;;;;;;5091919;28;20220;-69
2023/03/02 02:55:41;;;;;;;33.95;21.65;;;;;;;;;;5092351;28;20542;-69
2023/03/02 02:58:14;;;;;;;33.45;21.77;;;;;;;;;;5095587;28;20215;-69
2023/03/02 03:00:41;;;;;;;31.75;20.23;;;;;;;;;;5098736;28;20447;-69
2023/03/02 03:03:28;;;;;;;38.80;21.95;;;;;;;;;;5099858;28;20561;-69
2023/03/02 03:05:54;;;;;;;34.92;21.38;;;;;;;;;;5100010;28;20430;-69
2023/03/02 03:08:39;;;;;;;33.97;21.40;;;;;;;;;;5099583;28;20226;-69
2023/03/02 03:11:05;;;;;;;33.92;21.73;;;;;;;;;;5099809;28;20407;-69
2023/03/02 03:13:32;;;;;;;32.38;21.02;;;;;;;;;;5100095;28;20222;-69
2023/03/02 03:16:00;;;;;;;33.03;21.35;;;;;;;;;;5100009;28;20220;-69
2023/03/02 03:18:26;;;;;;;35.67;21.75;;;;;;;;;;5099503;28;20215;-69
2023/03/02 03:20:52;;;;;;;35.05;21.27;;;;;;;;;;5099639;28;20260;-69
2023/03/02 03:23:19;;;;;;;31.88;21.17;;;;;;;;;;5099983;28;20215;-69
2023/03/02 03:25:45;;;;;;;40.03;21.50;;;;;;;;;;5099946;28;20291;-69
2023/03/02 03:28:11;;;;;;;39.50;21.63;;;;;;;;;;5098759;28;20482;-69
2023/03/02 03:30:37;;;;;;;32.78;20.92;;;;;;;;;;5099233;28;20496;-69
2023/03/02 03:33:05;;;;;;;36.42;22.35;;;;;;;;;;5099226;28;20445;-69
2023/03/02 03:35:31;;;;;;;33.13;22.02;;;;;;;;;;5099491;28;20219;-69
2023/03/02 03:37:57;;;;;;;35.30;21.67;;;;;;;;;;5098691;28;20212;-69
2023/03/02 03:40:24;;;;;;;33.30;21.80;;;;;;;;;;5099039;28;20211;-69
2023/03/02 03:42:50;;;;;;;32.45;21.15;;;;;;;;;;5099241;28;20277;-69
2023/03/02 03:45:16;;;;;;;34.75;21.33;;;;;;;;;;5099439;28;20257;-69
2023/03/02 03:47:42;;;;;;;34.30;22.00;;;;;;;;;;5099180;28;20434;-69
2023/03/02 03:50:11;;;;;;;33.97;22.27;;;;;;;;;;5099259;28;20234;-69
2023/03/02 03:52:37;;;;;;;35.65;20.63;;;;;;;;;;5099706;28;20235;-69
2023/03/02 03:55:04;;;;;;;38.25;21.88;;;;;;;;;;5099066;28;20216;-69
2023/03/02 03:57:30;;;;;;;33.05;20.88;;;;;;;;;;5098782;28;20211;-69
2023/03/02 03:59:56;;;;;;;33.40;21.45;;;;;;;;;;5098690;28;20227;-69
2023/03/02 04:02:23;;;;;;;35.67;20.90;;;;;;;;;;5098846;28;20220;-69
2023/03/02 04:04:49;;;;;;;37.40;21.65;;;;;;;;;;5098847;28;20242;-69
2023/03/02 04:07:17;;;;;;;33.42;21.25;;;;;;;;;;5098476;28;20219;-69
2023/03/02 04:09:43;;;;;;;39.25;23.30;;;;;;;;;;5098329;28;20456;-69
2023/03/02 04:12:10;;;;;;;39.17;23.02;;;;;;;;;;5097735;28;20546;-69
2023/03/02 04:14:36;;;;;;;33.85;22.10;;;;;;;;;;5099035;28;20610;-69
2023/03/02 04:17:04;;;;;;;36.33;21.95;;;;;;;;;;5098626;28;20482;-69
2023/03/02 04:19:30;;;;;;;37.85;23.38;;;;;;;;;;5099019;28;20211;-69
2023/03/02 04:21:57;;;;;;;36.45;22.33;;;;;;;;;;5098782;28;20215;-69
2023/03/02 04:24:24;;;;;;;37.97;23.20;;;;;;;;;;5098703;28;20223;-68
2023/03/02 04:26:51;;;;;;;35.65;22.33;;;;;;;;;;5098263;28;20595;-69
2023/03/02 04:29:18;;;;;;;37.75;22.27;;;;;;;;;;5098087;28;20684;-69
2023/03/02 04:31:44;;;;;;;39.22;23.80;;;;;;;;;;5098869;28;20216;-69
2023/03/02 04:34:10;;;;;;;35.60;23.25;;;;;;;;;;5098047;28;20203;-69
2023/03/02 04:36:37;;;;;;;36.75;22.23;;;;;;;;;;5098094;28;20216;-69
2023/03/02 04:39:04;;;;;;;34.67;22.40;;;;;;;;;;5089078;28;20216;-69
2023/03/02 04:41:32;;;;;;;35.42;22.15;;;;;;;;;;5098226;28;20573;-69
2023/03/02 04:43:58;;;;;;;40.90;23.08;;;;;;;;;;5098176;28;20473;-69
2023/03/02 04:46:26;;;;;;;37.15;22.77;;;;;;;;;;5098113;28;20219;-69
2023/03/02 04:48:52;;;;;;;38.47;23.33;;;;;;;;;;5097757;28;20231;-69
2023/03/02 04:51:22;;;;;;;40.15;22.77;;;;;;;;;;5098204;28;20570;-69
2023/03/02 04:53:49;;;;;;;37.80;22.40;;;;;;;;;;5098134;28;20213;-69
2023/03/02 04:56:15;;;;;;;41.75;23.05;;;;;;;;;;5089779;28;20253;-69
2023/03/02 04:58:42;;;;;;;41.80;23.13;;;;;;;;;;5097355;28;20211;-69
2023/03/02 05:01:09;;;;;;;38.38;23.35;;;;;;;;;;5097909;28;20236;-69
2023/03/02 05:03:35;;;;;;;36.72;23.52;;;;;;;;;;5097757;28;20223;-69
2023/03/02 05:06:03;;;;;;;40.28;23.38;;;;;;;;;;5097437;28;20216;-69
2023/03/02 05:08:29;;;;;;;35.95;22.17;;;;;;;;;;5096974;28;20227;-69
2023/03/02 05:10:57;;;;;;;40.75;23.42;;;;;;;;;;5097516;28;20253;-69
2023/03/02 05:13:23;;;;;;;38.30;22.20;;;;;;;;;;5097473;28;20278;-69
2023/03/02 05:15:51;;;;;;;39.20;22.95;;;;;;;;;;5097571;28;20215;-69
2023/03/02 05:18:18;;;;;;;36.53;23.70;;;;;;;;;;5089100;28;20211;-69
2023/03/02 05:20:45;;;;;;;41.47;23.20;;;;;;;;;;5097784;28;20220;-69
2023/03/02 05:23:15;;;;;;;38.22;23.00;;;;;;;;;;5097775;28;20541;-69
2023/03/02 05:25:42;;;;;;;37.08;22.52;;;;;;;;;;5097931;28;20449;-69
2023/03/02 05:28:08;;;;;;;44.35;22.92;;;;;;;;;;5097098;28;20840;-69
2023/03/02 05:30:36;;;;;;;43.10;23.25;;;;;;;;;;5097304;28;20219;-69
2023/03/02 05:33:04;;;;;;;39.08;24.85;;;;;;;;;;5097117;28;20467;-69
2023/03/02 05:35:30;;;;;;;41.88;25.17;;;;;;;;;;5097385;28;20207;-69
2023/03/02 05:37:56;;;;;;;43.30;24.48;;;;;;;;;;5096867;28;20271;-69
2023/03/02 05:40:23;;;;;;;39.15;24.10;;;;;;;;;;5096671;28;20221;-69
2023/03/02 05:42:49;;;;;;;43.60;23.80;;;;;;;;;;5096881;28;20237;-69
2023/03/02 05:45:18;;;;;;;37.95;22.65;;;;;;;;;;5096863;28;20220;-70
2023/03/02 05:47:45;;;;;;;40.60;23.63;;;;;;;;;;5096475;28;20479;-69
2023/03/02 05:50:12;;;;;;;39.75;23.20;;;;;;;;;;5096681;28;20219;-69
2023/03/02 05:52:38;;;;;;;35.53;22.73;;;;;;;;;;5097377;28;20273;-70
2023/03/02 05:55:05;;;;;;;37.53;23.50;;;;;;;;;;5097225;28;20211;-69
2023/03/02 05:57:31;;;;;;;38.55;23.55;;;;;;;;;;5097454;28;20215;-69
2023/03/02 05:59:58;;;;;;;37.40;22.15;;;;;;;;;;5096521;28;20224;-70
2023/03/02 06:02:24;;;;;;;37.22;21.75;;;;;;;;;;5097088;28;20218;-70
2023/03/02 06:04:50;;;;;;;33.67;21.67;;;;;;;;;;5096886;28;20211;-69
2023/03/02 06:07:18;;;;;;;34.85;21.83;;;;;;;;;;5096388;28;20230;-69
2023/03/02 06:09:44;;;;;;;37.20;21.38;;;;;;;;;;5096302;28;20234;-69
2023/03/02 06:12:10;;;;;;;35.08;20.88;;;;;;;;;;5096631;28;20212;-69
2023/03/02 06:14:36;;;;;;;35.78;21.88;;;;;;;;;;5096682;28;20211;-69
2023/03/02 06:17:03;;;;;;;39.63;21.60;;;;;;;;;;5096564;28;20261;-69
2023/03/02 06:19:29;;;;;;;32.30;20.70;;;;;;;;;;5096177;28;20208;-69
2023/03/02 06:21:55;;;;;;;33.40;20.17;;;;;;;;;;5096984;28;20261;-70
2023/03/02 06:24:23;;;;;;;33.38;19.95;;;;;;;;;;5096823;28;20264;-70
2023/03/02 06:26:49;;;;;;;32.42;20.45;;;;;;;;;;5096598;28;20211;-69
2023/03/02 06:29:15;;;;;;;32.90;20.23;;;;;;;;;;5095964;28;20416;-70
2023/03/02 06:31:41;;;;;;;32.75;20.08;;;;;;;;;;5096599;28;20394;-70
2023/03/02 06:34:08;;;;;;;32.20;20.30;;;;;;;;;;5095878;28;20257;-70
2023/03/02 06:36:37;;;;;;;35.33;22.10;;;;;;;;;;5096274;28;20212;-70
2023/03/02 06:39:03;;;;;;;39.40;22.05;;;;;;;;;;5096082;28;20234;-70
2023/03/02 06:41:32;;;;;;;40.60;23.15;;;;;;;;;;5096069;28;20557;-70
2023/03/02 06:43:58;;;;;;;33.63;20.48;;;;;;;;;;5096236;28;20484;-69
2023/03/02 06:46:24;;;;;;;32.22;20.23;;;;;;;;;;5096131;28;20528;-69
2023/03/02 06:48:51;;;;;;;30.70;20.38;;;;;;;;;;5095939;28;20285;-69
2023/03/02 06:51:17;;;;;;;31.00;19.65;;;;;;;;;;5096375;28;20280;-69
2023/03/02 06:53:44;;;;;;;33.53;20.38;;;;;;;;;;5096428;28;20223;-69
2023/03/02 06:56:10;;;;;;;33.50;19.33;;;;;;;;;;5095984;28;20207;-69
2023/03/02 06:58:37;;;;;;;32.08;20.50;;;;;;;;;;5095971;28;20215;-69
2023/03/02 07:01:06;;;;;;;32.42;19.73;;;;;;;;;;5096141;28;20208;-69
2023/03/02 07:03:32;;;;;;;30.42;19.55;;;;;;;;;;5096307;28;20261;-61
2023/03/02 07:05:59;;;;;;;30.63;19.08;;;;;;;;;;5095828;28;20447;-61
2023/03/02 07:08:25;;;;;;;35.58;19.45;;;;;;;;;;5095337;28;20267;-61
2023/03/02 07:10:51;;;;;;;31.92;19.38;;;;;;;;;;5095657;28;20412;-61
2023/03/02 07:13:17;;;;;;;32.60;18.88;;;;;;;;;;5092377;28;20543;-60
2023/03/02 07:15:45;;;;;;;32.15;19.17;;;;;;;;;;5087843;28;20530;-60
2023/03/02 07:18:11;;;;;;;34.13;18.85;;;;;;;;;;5088905;28;20519;-60
2023/03/02 07:20:38;;;;;;;33.25;21.15;;;;;;;;;;5092388;28;20212;-60
2023/03/02 07:23:04;;;;;;;31.77;20.30;;;;;;;;;;5086061;28;20332;-60
2023/03/02 07:25:31;;;;;;;32.97;20.50;;;;;;;;;;5081982;28;20216;-60
2023/03/02 07:27:57;;;;;;;31.83;20.00;;;;;;;;;;5087973;28;20225;-60
2023/03/02 07:30:23;;;;;;;40.33;22.95;;;;;;;;;;5085123;28;20231;-60
2023/03/02 07:32:51;;;;;;;36.72;22.40;;;;;;;;;;5084839;28;20211;-60
2023/03/02 07:35:18;;;;;;;33.13;20.58;;;;;;;;;;5087406;28;20539;-60
2023/03/02 07:37:44;;;;;;;30.85;19.67;;;;;;;;;;5093914;28;20418;-60
2023/03/02 07:40:11;;;;;;;32.10;19.70;;;;;;;;;;5092706;28;20204;-61
2023/03/02 07:42:38;;;;;;;35.05;20.88;;;;;;;;;;5094174;28;20245;-61
2023/03/02 07:45:04;;;;;;;31.88;20.00;;;;;;;;;;5093986;28;20215;-61
2023/03/02 07:47:31;;;;;;;31.77;20.60;;;;;;;;;;5094309;28;20228;-61
2023/03/02 07:49:58;;;;;;;31.70;21.02;;;;;;;;;;5087486;28;20277;-60
2023/03/02 07:52:24;;;;;;;31.35;19.25;;;;;;;;;;5090486;28;20215;-61
2023/03/02 07:54:51;;;;;;;29.85;19.30;;;;;;;;;;5089263;28;20212;-61
2023/03/02 07:57:17;;;;;;;32.42;18.98;;;;;;;;;;5089652;28;20223;-61
2023/03/02 07:59:43;;;;;;;36.55;20.65;;;;;;;;;;5096829;28;20410;-60
2023/03/02 08:02:12;;;;;;;32.28;19.80;;;;;;;;;;5096468;28;20257;-61
2023/03/02 08:04:38;;;;;;;28.98;19.27;;;;;;;;;;5097675;28;20461;-61
2023/03/02 08:07:06;;;;;;;33.20;19.85;;;;;;;;;;5097362;28;20524;-62
2023/03/02 08:09:32;;;;;;;27.58;19.15;;;;;;;;;;5089528;28;20242;-61
2023/03/02 08:11:59;;;;;;;28.48;18.58;;;;;;;;;;5097166;28;20208;-61
2023/03/02 08:14:25;;;;;;;33.83;19.77;;;;;;;;;;5097999;28;20207;-61
2023/03/02 08:16:52;;;;;;;32.33;19.73;;;;;;;;;;5094554;28;20222;-63
2023/03/02 08:19:18;;;;;;;32.67;19.75;;;;;;;;;;5095951;28;20215;-62
2023/03/02 08:21:45;;;;;;;32.55;20.33;;;;;;;;;;5096653;28;20414;-62
2023/03/02 08:24:12;;;;;;;30.33;19.33;;;;;;;;;;5097399;28;20207;-63
2023/03/02 08:26:39;;;;;;;32.45;19.02;;;;;;;;;;5096678;28;20215;-63
2023/03/02 08:29:06;;;;;;;29.58;18.48;;;;;;;;;;5096147;28;20272;-63
2023/03/02 08:31:32;;;;;;;28.27;18.67;;;;;;;;;;5097024;28;20276;-60
2023/03/02 08:33:59;;;;;;;31.13;18.67;;;;;;;;;;5096713;28;20233;-61
2023/03/02 08:36:25;;;;;;;30.65;18.48;;;;;;;;;;5096119;28;20242;-61
2023/03/02 08:38:53;;;;;;;27.02;17.92;;;;;;;;;;5096136;28;20547;-61
2023/03/02 08:41:22;;;;;;;26.88;18.08;;;;;;;;;;5096831;28;20253;-60
2023/03/02 08:43:49;;;;;;;30.02;18.42;;;;;;;;;;5097416;28;20212;-61
2023/03/02 08:46:16;;;;;;;28.15;17.92;;;;;;;;;;5093184;28;20216;-60
2023/03/02 08:48:43;;;;;;;25.45;17.27;;;;;;;;;;5089691;28;20212;-59
2023/03/02 08:51:11;;;;;;;29.45;18.60;;;;;;;;;;5094824;28;20200;-60
2023/03/02 08:53:39;;;;;;;33.58;18.25;;;;;;;;;;5096369;28;20233;-63
2023/03/02 08:56:06;;;;;;;37.95;20.48;;;;;;;;;;5095769;28;20199;-60
2023/03/02 08:58:33;;;;;;;29.33;18.55;;;;;;;;;;5094753;28;20215;-60
2023/03/02 09:01:01;;;;;;;29.80;18.58;;;;;;;;;;5096161;28;20615;-61
2023/03/02 09:03:27;;;;;;;30.50;19.48;;;;;;;;;;5096113;28;20207;-61
2023/03/02 09:05:53;;;;;;;32.67;19.27;;;;;;;;;;5095915;28;20415;-61
2023/03/02 09:08:19;;;;;;;31.65;18.63;;;;;;;;;;5095649;28;20728;-61
2023/03/02 09:10:46;;;;;;;29.27;19.65;;;;;;;;;;5096333;28;20228;-60
2023/03/02 09:13:12;;;;;;;34.15;20.27;;;;;;;;;;5096383;28;20272;-61
2023/03/02 09:15:39;;;;;;;39.38;20.17;;;;;;;;;;5096759;28;20215;-61
2023/03/02 09:18:06;;;;;;;33.33;19.92;;;;;;;;;;5095781;28;20568;-60
2023/03/02 09:20:33;;;;;;;33.38;20.77;;;;;;;;;;5095442;28;20256;-60
2023/03/02 09:23:00;;;;;;;29.83;19.42;;;;;;;;;;5096171;28;20212;-60
2023/03/02 09:25:26;;;;;;;31.02;18.85;;;;;;;;;;5095712;28;20200;-59
2023/03/02 09:27:52;;;;;;;33.40;19.35;;;;;;;;;;5095747;28;20337;-60
2023/03/02 09:30:18;;;;;;;32.67;19.75;;;;;;;;;;5095117;28;20515;-61
2023/03/02 09:32:45;;;;;;;31.88;19.58;;;;;;;;;;5094942;28;20211;-60
2023/03/02 09:35:12;;;;;;;28.83;18.50;;;;;;;;;;5095049;28;20208;-60
2023/03/02 09:37:39;;;;;;;31.85;18.95;;;;;;;;;;5095287;28;20212;-61
2023/03/02 09:40:06;;;;;;;29.63;18.92;;;;;;;;;;5095697;28;20208;-61
2023/03/02 09:42:42;;;;;;;36.03;20.50;;;;;;;;;;5094379;28;20207;-60
2023/03/02 09:45:29;;;;;;;37.60;21.15;;;;;;;;;;5095513;28;20453;-61
2023/03/02 09:48:01;;;;;;;34.40;20.17;;;;;;;;;;5090057;28;20505;-61
2023/03/02 09:50:31;;;;;;;38.85;20.52;;;;;;;;;;5095212;28;20219;-60
2023/03/02 09:53:05;;;;;;;36.78;21.08;;;;;;;;;;5095443;28;20207;-61
2023/03/02 09:55:33;;;;;;;32.08;19.48;;;;;;;;;;5086930;28;20207;-61
2023/03/02 09:58:01;;;;;;;39.47;19.88;;;;;;;;;;5094264;28;20237;-60
2023/03/02 10:00:28;;;;;;;37.92;20.42;;;;;;;;;;5094745;28;20203;-61
2023/03/02 10:02:56;;;;;;;35.65;21.17;;;;;;;;;;5094941;28;20208;-60
2023/03/02 10:05:24;;;;;;;36.15;21.98;;;;;;;;;;5094350;28;20563;-61
2023/03/02 10:07:52;;;;;;;35.10;20.15;;;;;;;;;;5093691;28;20208;-60
2023/03/02 10:10:23;;;;;;;33.40;19.60;;;;;;;;;;5093501;28;20280;-62
2023/03/02 10:12:55;;;;;;;33.95;19.40;;;;;;;;;;5094942;28;20215;-61
2023/03/02 10:15:23;;;;;;;28.85;18.05;;;;;;;;;;5095358;28;20216;-61
2023/03/02 10:17:56;;;;;;;26.40;18.33;;;;;;;;;;5093786;28;20212;-61
2023/03/02 10:20:27;;;;;;;29.88;18.42;;;;;;;;;;5094262;28;20519;-62
2023/03/02 10:22:57;;;;;;;30.55;17.88;;;;;;;;;;5095476;28;20208;-61
2023/03/02 10:25:30;;;;;;;33.83;18.17;;;;;;;;;;5094859;28;20454;-62
2023/03/02 10:28:01;;;;;;;30.35;18.90;;;;;;;;;;5094613;28;20227;-62
2023/03/02 10:30:29;;;;;;;28.80;19.48;;;;;;;;;;5093514;28;20454;-61
2023/03/02 10:32:58;;;;;;;29.55;17.63;;;;;;;;;;5094063;28;20393;-61
2023/03/02 10:35:25;;;;;;;30.23;18.60;;;;;;;;;;5094134;28;20257;-60
2023/03/02 10:37:55;;;;;;;29.17;18.52;;;;;;;;;;5090207;28;20261;-61
2023/03/02 10:40:28;;;;;;;28.40;18.60;;;;;;;;;;5090331;28;20519;-61
2023/03/02 10:42:55;;;;;;;31.58;20.00;;;;;;;;;;5088516;28;20230;-60
2023/03/02 10:45:23;;;;;;;31.50;19.63;;;;;;;;;;5089904;28;20212;-61
2023/03/02 10:47:59;;;;;;;33.38;19.25;;;;;;;;;;5093399;28;20282;-61
2023/03/02 10:50:25;;;;;;;32.97;19.25;;;;;;;;;;5093733;28;20211;-61
2023/03/02 10:52:51;;;;;;;38.22;20.58;;;;;;;;;;5094123;28;20573;-63
2023/03/02 10:55:17;;;;;;;28.35;18.25;;;;;;;;;;5093347;28;20212;-60
2023/03/02 10:57:45;;;;;;;30.35;19.13;;;;;;;;;;5092974;28;20207;-61
2023/03/02 11:00:16;;;;;;;29.38;19.10;;;;;;;;;;5093061;28;20207;-60
2023/03/02 11:02:49;;;;;;;30.40;20.05;;;;;;;;;;5093140;28;20303;-60
2023/03/02 11:05:23;;;;;;;29.45;19.30;;;;;;;;;;5093020;28;20264;-61
2023/03/02 11:07:53;;;;;;;33.47;19.38;;;;;;;;;;5093168;28;20203;-61
2023/03/02 11:10:20;;;;;;;32.03;19.90;;;;;;;;;;5092187;28;20247;-61
2023/03/02 11:12:49;;;;;;;28.08;19.60;;;;;;;;;;5093975;28;20208;-61
2023/03/02 11:15:17;;;;;;;29.08;21.15;;;;;;;;;;5089397;28;20265;-61
2023/03/02 11:17:45;;;;;;;25.02;18.20;;;;;;;;;;5088742;28;20403;-61
2023/03/02 11:20:15;;;;;;;32.72;18.92;;;;;;;;;;5086751;28;20456;-61
2023/03/02 11:22:44;;;;;;;29.80;18.63;;;;;;;;;;5092889;28;20538;-63
2023/03/02 11:25:14;;;;;;;31.27;19.95;;;;;;;;;;5097940;28;20212;-63
2023/03/02 11:27:41;;;;;;;30.38;18.83;;;;;;;;;;5090372;28;20224;-63
2023/03/02 11:30:11;;;;;;;27.30;18.52;;;;;;;;;;5091270;28;20547;-62
2023/03/02 11:32:41;;;;;;;30.65;18.85;;;;;;;;;;5091357;28;20608;-63
2023/03/02 11:35:11;;;;;;;28.13;19.02;;;;;;;;;;5097510;28;20241;-63
2023/03/02 11:37:39;;;;;;;28.17;18.55;;;;;;;;;;5097605;28;20208;-62
2023/03/02 11:40:13;;;;;;;31.02;20.17;;;;;;;;;;5097437;28;20208;-62
2023/03/02 11:42:40;;;;;;;26.73;17.38;;;;;;;;;;5089268;28;20444;-62
2023/03/02 11:45:16;;;;;;;26.80;18.38;;;;;;;;;;5097868;28;20211;-62
2023/03/02 11:47:45;;;;;;;25.63;17.55;;;;;;;;;;5091981;28;20207;-62
2023/03/02 11:50:14;;;;;;;27.88;18.92;;;;;;;;;;5097152;28;20231;-62
2023/03/02 11:52:44;;;;;;;24.00;17.50;;;;;;;;;;5095532;28;21136;-62
2023/03/02 11:55:15;;;;;;;28.45;18.90;;;;;;;;;;5094761;28;20212;-62
2023/03/02 11:57:47;;;;;;;25.88;18.63;;;;;;;;;;5089244;28;20429;-63
2023/03/02 12:00:21;;;;;;;31.17;17.92;;;;;;;;;;5096411;28;20204;-61
2023/03/02 12:02:57;;;;;;;23.35;18.10;;;;;;;;;;5096626;28;20207;-60
2023/03/02 12:05:25;;;;;;;24.02;18.30;;;;;;;;;;5096928;28;20530;-60
2023/03/02 12:07:58;;;;;;;28.20;18.23;;;;;;;;;;5096731;28;20453;-60
2023/03/02 12:10:27;;;;;;;28.08;18.88;;;;;;;;;;5096696;28;20571;-59
2023/03/02 12:13:00;;;;;;;24.48;18.15;;;;;;;;;;5096607;28;20207;-60
2023/03/02 12:15:33;;;;;;;26.25;17.85;;;;;;;;;;5096221;28;20219;-61
2023/03/02 12:18:00;;;;;;;25.02;18.13;;;;;;;;;;5095762;28;20207;-59
2023/03/02 12:20:27;;;;;;;32.17;19.02;;;;;;;;;;5095998;28;20211;-60
2023/03/02 12:22:54;;;;;;;22.92;17.02;;;;;;;;;;5091484;28;20208;-60
2023/03/02 12:25:28;;;;;;;25.63;17.95;;;;;;;;;;5088824;28;20261;-60
2023/03/02 12:27:54;;;;;;;24.48;17.42;;;;;;;;;;5084939;28;20223;-58
2023/03/02 12:30:25;;;;;;;24.02;17.95;;;;;;;;;;5093340;28;20227;-59
2023/03/02 12:33:01;;;;;;;28.17;18.75;;;;;;;;;;5094979;28;20253;-59
2023/03/02 12:35:29;;;;;;;27.48;17.98;;;;;;;;;;5094745;28;20269;-62
2023/03/02 12:37:58;;;;;;;26.70;18.63;;;;;;;;;;5095735;28;20216;-59
2023/03/02 12:40:28;;;;;;;28.08;18.10;;;;;;;;;;5095676;28;20215;-59
2023/03/02 12:43:02;;;;;;;28.30;18.60;;;;;;;;;;5095690;28;20230;-60
2023/03/02 12:45:41;;;;;;;29.85;18.15;;;;;;;;;;5096441;28;20218;-60
2023/03/02 12:48:20;;;;;;;25.05;17.95;;;;;;;;;;5096310;28;20291;-60
2023/03/02 12:50:47;;;;;;;29.42;18.00;;;;;;;;;;5094909;28;20257;-60
2023/03/02 12:53:16;;;;;;;23.92;17.30;;;;;;;;;;5095744;28;20212;-60
2023/03/02 12:55:42;;;;;;;26.25;17.15;;;;;;;;;;5089865;28;20208;-62
2023/03/02 12:58:16;;;;;;;31.05;18.55;;;;;;;;;;5093237;28;20229;-61
2023/03/02 13:00:48;;;;;;;25.95;18.65;;;;;;;;;;5091349;28;20203;-62
2023/03/02 13:03:17;;;;;;;23.98;17.75;;;;;;;;;;5086498;28;20261;-60
2023/03/02 13:05:45;;;;;;;33.03;17.83;;;;;;;;;;5087472;28;20214;-60
2023/03/02 13:08:15;;;;;;;32.03;20.00;;;;;;;;;;5092912;28;20245;-60
2023/03/02 13:10:43;;;;;;;25.58;17.48;;;;;;;;;;5090060;28;20223;-59
2023/03/02 13:13:15;;;;;;;28.45;18.33;;;;;;;;;;5091922;28;20212;-59
2023/03/02 13:15:46;;;;;;;25.83;17.45;;;;;;;;;;5090947;28;20214;-59
2023/03/02 13:18:13;;;;;;;26.55;18.10;;;;;;;;;;5094799;28;20437;-60
2023/03/02 13:20:40;;;;;;;26.88;17.00;;;;;;;;;;5089083;28;20245;-59
2023/03/02 13:23:07;;;;;;;28.23;18.00;;;;;;;;;;5086287;28;20407;-59
2023/03/02 13:25:33;;;;;;;28.50;18.05;;;;;;;;;;5090729;28;20223;-59
2023/03/02 13:28:06;;;;;;;24.42;17.00;;;;;;;;;;5087588;28;20223;-60
2023/03/02 13:30:33;;;;;;;27.50;18.02;;;;;;;;;;5089362;28;20219;-60
2023/03/02 13:33:02;;;;;;;25.17;18.33;;;;;;;;;;5090567;28;20214;-59
2023/03/02 13:35:29;;;;;;;27.33;18.15;;;;;;;;;;5093493;28;20219;-63
2023/03/02 13:37:58;;;;;;;26.88;19.48;;;;;;;;;;5090384;28;20208;-63
2023/03/02 13:40:30;;;;;;;24.15;18.98;;;;;;;;;;5089259;28;20442;-63
2023/03/02 13:42:57;;;;;;;28.10;18.40;;;;;;;;;;5088385;28;20234;-63
2023/03/02 13:45:24;;;;;;;28.75;17.33;;;;;;;;;;5091508;28;20212;-63
2023/03/02 13:47:51;;;;;;;27.30;17.23;;;;;;;;;;5095700;28;20196;-63
2023/03/02 13:50:18;;;;;;;25.58;17.65;;;;;;;;;;5095117;28;20235;-63
2023/03/02 13:52:44;;;;;;;27.95;18.27;;;;;;;;;;5088583;28;20399;-60
2023/03/02 13:55:14;;;;;;;28.23;18.73;;;;;;;;;;5084997;28;20524;-60
2023/03/02 13:57:41;;;;;;;30.35;18.23;;;;;;;;;;5086892;28;20217;-60
2023/03/02 14:00:11;;;;;;;24.77;18.00;;;;;;;;;;5090497;28;20208;-59
2023/03/02 14:02:37;;;;;;;24.00;18.33;;;;;;;;;;5088852;28;20207;-59
2023/03/02 14:05:03;;;;;;;30.13;17.08;;;;;;;;;;5093634;28;20251;-59
2023/03/02 14:07:29;;;;;;;25.77;17.17;;;;;;;;;;5089446;28;20208;-60
2023/03/02 14:09:56;;;;;;;23.50;17.45;;;;;;;;;;5088488;28;20415;-60
2023/03/02 14:12:25;;;;;;;26.08;15.75;;;;;;;;;;5093529;28;20227;-60
2023/03/02 14:14:54;;;;;;;19.77;15.57;;;;;;;;;;5090979;28;20227;-60
2023/03/02 14:17:22;;;;;;;23.63;16.58;;;;;;;;;;5087281;28;20216;-60
2023/03/02 14:19:51;;;;;;;22.77;16.23;;;;;;;;;;5086136;28;20538;-60